createdAt,value
2018-06-11T00:02:28.795Z,3.96
2018-06-11T00:08:29.625Z,4.16
2018-06-11T00:12:30.857Z,4.01
2018-06-11T00:14:31.694Z,3.85
2018-06-11T00:18:33.602Z,3.57
2018-06-11T00:24:33.875Z,3.89
2018-06-11T00:28:34.804Z,3.78
2018-06-11T00:34:36.052Z,3.88
2018-06-11T00:38:37.707Z,3.34
2018-06-11T00:40:37.256Z,3.76
2018-06-11T00:44:38.448Z,3.43
2018-06-11T00:50:39.252Z,4.12
2018-06-11T00:54:40.853Z,3.88
2018-06-11T01:00:41.308Z,4.07
2018-06-11T01:04:42.376Z,3.29
2018-06-11T01:06:43.244Z,3.56
2018-06-11T01:10:45.146Z,3.62
2018-06-11T01:16:45.304Z,3.75
2018-06-11T01:20:45.717Z,3.73
2018-06-11T01:26:46.449Z,3.86
2018-06-11T01:30:47.163Z,3.52
2018-06-11T01:32:48.991Z,3.77
2018-06-11T01:36:48.595Z,3.61
2018-06-11T01:42:49.363Z,3.98
2018-06-11T01:46:51.037Z,3.77
2018-06-11T01:52:51.041Z,3.95
2018-06-11T01:56:51.813Z,3.7
2018-06-11T01:58:52.403Z,4.23
2018-06-11T02:02:53.227Z,3.83
2018-06-11T02:08:53.937Z,3.99
2018-06-11T02:12:54.766Z,3.65
2018-06-11T02:18:55.607Z,4.18
2018-06-11T02:22:56.262Z,3.57
2018-06-11T02:24:57.045Z,4.33
2018-06-11T02:28:57.706Z,3.59
2018-06-11T02:34:59.385Z,4.15
2018-06-11T02:38:59.321Z,3.32
2018-06-11T02:45:00.786Z,4.28
2018-06-11T02:49:00.961Z,3.89
2018-06-11T02:51:02.095Z,4.05
2018-06-11T02:55:03.223Z,4.14
2018-06-11T03:01:03.787Z,3.78
2018-06-11T03:05:04.880Z,3.81
2018-06-11T03:11:07.360Z,4.32
2018-06-11T03:15:09.449Z,4.23
2018-06-11T03:17:08.940Z,4.71
2018-06-11T03:21:09.835Z,4.43
2018-06-11T03:27:12.357Z,4.25
2018-06-11T03:31:12.567Z,3.81
2018-06-11T03:37:14.316Z,4.42
2018-06-11T03:41:15.331Z,4.2
2018-06-11T03:43:16.869Z,3.97
2018-06-11T03:47:17.960Z,3.97
2018-06-11T03:53:18.929Z,4.3
2018-06-11T03:57:19.473Z,4.35
2018-06-11T04:03:21.451Z,4.44
2018-06-11T04:07:21.776Z,4.6
2018-06-11T04:09:21.985Z,4.3
2018-06-11T04:13:22.795Z,4.41
2018-06-11T04:19:23.553Z,4.67
2018-06-11T04:23:24.771Z,4.87
2018-06-11T04:29:25.084Z,3.7
2018-06-11T04:33:25.924Z,3.54
2018-06-11T04:35:27.290Z,4.06
2018-06-11T04:39:27.508Z,3.94
2018-06-11T04:45:28.781Z,3.84
2018-06-11T04:49:29.774Z,4.04
2018-06-11T04:55:30.300Z,4.49
2018-06-11T04:59:31.356Z,4.31
2018-06-11T05:01:32.315Z,4.19
2018-06-11T05:05:33.106Z,4.75
2018-06-11T05:11:33.564Z,4.73
2018-06-11T05:15:34.575Z,4.83
2018-06-11T05:21:35.323Z,5
2018-06-11T05:25:36.161Z,4.59
2018-06-11T05:27:36.517Z,4.85
2018-06-11T05:31:37.600Z,4.32
2018-06-11T05:37:39.054Z,4.64
2018-06-11T05:41:40.116Z,4.18
2018-06-11T05:47:42.515Z,4.77
2018-06-11T05:51:43.251Z,5.05
2018-06-11T05:53:44.257Z,5.11
2018-06-11T05:57:45.078Z,5.39
2018-06-11T06:03:46.307Z,6.2
2018-06-11T06:07:46.823Z,5.74
2018-06-11T06:13:47.564Z,5.67
2018-06-11T06:17:49.053Z,5.2
2018-06-11T06:19:49.660Z,5.72
2018-06-11T06:23:50.432Z,5.43
2018-06-11T06:29:51.263Z,4.85
2018-06-11T06:33:51.951Z,4.81
2018-06-11T06:39:53.074Z,4.62
2018-06-11T06:43:53.750Z,4.38
2018-06-11T06:45:54.752Z,5.9
2018-06-11T06:49:55.476Z,5.55
2018-06-11T06:55:56.251Z,4.97
2018-06-11T06:59:57.437Z,5.29
2018-06-11T07:05:58.643Z,4.76
2018-06-11T07:10:00.474Z,4.78
2018-06-11T07:12:04.070Z,5.98
2018-06-11T07:16:04.932Z,5.31
2018-06-11T07:22:06.707Z,4.37
2018-06-11T07:26:07.123Z,4.5
2018-06-11T07:32:09.239Z,5.35
2018-06-11T07:36:09.746Z,5.17
2018-06-11T07:38:10.225Z,5.83
2018-06-11T07:42:11.322Z,5.59
2018-06-11T07:48:11.701Z,5.12
2018-06-11T07:52:12.860Z,4.94
2018-06-11T07:58:13.587Z,5.28
2018-06-11T08:02:14.684Z,5.16
2018-06-11T08:04:15.607Z,4.65
2018-06-11T08:08:16.235Z,4.27
2018-06-11T08:14:18.977Z,4.52
2018-06-11T08:18:21.187Z,4.65
2018-06-11T08:24:22.704Z,4.84
2018-06-11T08:28:23.498Z,4.5
2018-06-11T08:30:24.681Z,5.15
2018-06-11T08:34:26.787Z,5.42
2018-06-11T08:40:28.085Z,4.84
2018-06-11T08:44:29.064Z,4.57
2018-06-11T08:50:29.833Z,4.09
2018-06-11T08:54:30.561Z,4.53
2018-06-11T08:56:31.295Z,4.66
2018-06-11T09:00:32.809Z,4.6
2018-06-11T09:06:34.146Z,3.37
2018-06-11T09:10:34.309Z,3.37
2018-06-11T09:16:35.426Z,3.55
2018-06-11T09:20:35.995Z,3.53
2018-06-11T09:22:36.561Z,2.76
2018-06-11T09:26:37.262Z,2.95
2018-06-11T09:32:40.184Z,3.9
2018-06-11T09:36:43.056Z,3.77
2018-06-11T09:42:46.283Z,3.97
2018-06-11T09:46:48.361Z,3.77
2018-06-11T09:52:49.366Z,3.77
2018-06-11T09:58:50.095Z,2.67
2018-06-11T10:02:50.935Z,2.73
2018-06-11T10:08:52.441Z,3.32
2018-06-11T10:12:52.588Z,2.47
2018-06-11T10:18:53.349Z,2.28
2018-06-11T10:24:54.076Z,2.62
2018-06-11T10:28:54.637Z,3.1
2018-06-11T10:34:55.669Z,3.89
2018-06-11T10:38:56.199Z,3.84
2018-06-11T10:40:56.892Z,3.69
2018-06-11T10:44:57.636Z,3.93
2018-06-11T10:50:58.407Z,3.51
2018-06-11T10:54:59.524Z,3.59
2018-06-11T11:01:00.450Z,3.44
2018-06-11T11:05:01.728Z,3.58
2018-06-11T11:07:02.493Z,3.82
2018-06-11T11:11:07.519Z,3.36
2018-06-11T11:32:06.128Z,2.66
2018-06-11T11:32:25.460Z,3.6
2018-06-11T11:32:43.640Z,3.4
2018-06-11T11:42:49.062Z,3.78
2018-06-11T11:42:50.236Z,3.1
2018-06-11T11:46:51.102Z,2.8
2018-06-11T11:48:51.761Z,3.45
2018-06-11T11:52:53.447Z,3.44
2018-06-11T11:58:55.310Z,3.87
2018-06-11T12:02:56.377Z,4.07
2018-06-11T12:08:56.985Z,3.45
2018-06-11T12:12:58.339Z,3.53
2018-06-11T12:14:58.785Z,3.5
2018-06-11T12:19:01.200Z,3.26
2018-06-11T12:25:00.614Z,2.8
2018-06-11T12:29:01.629Z,2.48
2018-06-11T12:35:06.184Z,3.19
2018-06-11T12:39:06.312Z,3.27
2018-06-11T12:41:05.610Z,3.15
2018-06-11T12:45:09.175Z,3.39
2018-06-11T12:51:10.734Z,3.61
2018-06-11T12:55:11.200Z,3.05
2018-06-11T13:01:13.328Z,2.98
2018-06-11T13:05:13.685Z,2.64
2018-06-11T13:07:15.452Z,3.19
2018-06-11T13:21:18.507Z,2.96
2018-06-11T13:21:21.381Z,2.83
2018-06-11T13:21:29.940Z,3.11
2018-06-11T13:27:30.880Z,2.9
2018-06-11T13:31:33.218Z,2.94
2018-06-11T13:37:34.766Z,3.73
2018-06-11T13:41:36.748Z,3.87
2018-06-11T13:43:36.092Z,3.04
2018-06-11T13:47:38.846Z,3.32
2018-06-11T13:53:39.189Z,3.61
2018-06-11T13:57:41.343Z,3.62
2018-06-11T14:03:42.309Z,4.19
2018-06-11T14:07:44.183Z,4.05
2018-06-11T14:09:44.939Z,3.88
2018-06-11T14:13:44.223Z,3.34
2018-06-11T14:19:45.505Z,4.13
2018-06-11T14:23:46.842Z,3.92
2018-06-11T14:29:47.002Z,3.49
2018-06-11T14:35:47.746Z,4.1
2018-06-11T14:39:48.521Z,3.55
2018-06-11T14:45:49.869Z,3.96
2018-06-11T14:49:51.632Z,3.84
2018-06-11T14:55:52.829Z,4.06
2018-06-11T15:01:53.652Z,3.62
2018-06-11T15:05:54.411Z,3.78
2018-06-11T15:11:55.684Z,4.12
2018-06-11T15:15:56.869Z,3.78
2018-06-11T15:21:58.145Z,3.7
2018-06-11T15:27:58.249Z,4.26
2018-06-11T15:31:59.105Z,4.27
2018-06-11T15:37:59.816Z,4.49
2018-06-11T15:42:00.570Z,4.13
2018-06-11T15:48:01.463Z,4.54
2018-06-11T15:54:02.645Z,4.16
2018-06-11T15:58:03.373Z,4.28
2018-06-11T16:04:04.166Z,4.02
2018-06-11T16:08:06.451Z,3.64
2018-06-11T16:10:05.674Z,3.67
2018-06-11T16:14:07.295Z,4.06
2018-06-11T16:20:09.751Z,3.73
2018-06-11T16:24:08.889Z,3.67
2018-06-11T16:30:11.464Z,8.05
2018-06-11T16:34:11.651Z,8.1
2018-06-11T16:36:12.020Z,4.58
2018-06-11T16:40:14.279Z,11.96
2018-06-11T16:46:14.565Z,7.55
2018-06-11T16:50:16.246Z,6.37
2018-06-11T16:56:16.663Z,6.71
2018-06-11T17:00:18.073Z,6.56
2018-06-11T17:02:18.951Z,4.43
2018-06-11T17:06:19.743Z,4.22
2018-06-11T17:12:20.945Z,4.52
2018-06-11T17:16:21.431Z,3.97
2018-06-11T17:22:22.292Z,5.15
2018-06-11T17:26:23.158Z,4.54
2018-06-11T17:28:24.833Z,4.52
2018-06-11T17:32:26.748Z,4.41
2018-06-11T17:38:27.690Z,5.29
2018-06-11T17:42:28.036Z,5.76
2018-06-11T17:48:29.099Z,9.85
2018-06-11T17:52:30.058Z,8.96
2018-06-11T17:54:30.909Z,8.58
2018-06-11T17:58:31.296Z,8.44
2018-06-11T18:04:32.240Z,5.52
2018-06-11T18:08:33.769Z,4.82
2018-06-11T18:14:36.163Z,8.18
2018-06-11T18:18:37.947Z,8.07
2018-06-11T18:20:38.039Z,7.56
2018-06-11T18:24:39.190Z,7.97
2018-06-11T18:30:40.443Z,7.15
2018-06-11T18:34:41.368Z,6.91
2018-06-11T18:40:42.207Z,7.28
2018-06-11T18:44:42.636Z,7.18
2018-06-11T18:46:43.590Z,6.18
2018-06-11T18:50:44.056Z,6.17
2018-06-11T18:56:44.880Z,5.69
2018-06-11T19:00:45.455Z,4.64
2018-06-11T19:06:46.214Z,4.88
2018-06-11T19:10:47.088Z,4.24
2018-06-11T19:12:47.795Z,5.65
2018-06-11T19:16:48.618Z,5.48
2018-06-11T19:22:49.210Z,6.87
2018-06-11T19:26:49.910Z,6.95
2018-06-11T19:32:50.751Z,7.64
2018-06-11T19:38:51.760Z,8.07
2018-06-11T19:43:08.433Z,6.85
2018-06-11T19:48:53.356Z,6.84
2018-06-11T19:52:54.700Z,6.22
2018-06-11T19:58:55.486Z,5.73
2018-06-11T20:04:56.108Z,6.64
2018-06-11T20:08:56.795Z,6.95
2018-06-11T20:14:57.540Z,8.93
2018-06-11T20:18:58.325Z,8.69
2018-06-11T20:24:59.316Z,7.67
2018-06-11T20:31:00.128Z,6.95
2018-06-11T20:35:00.931Z,7.34
2018-06-11T20:41:01.832Z,9.06
2018-06-11T20:45:03.013Z,8.44
2018-06-11T20:51:03.265Z,9.15
2018-06-11T20:57:03.961Z,8.82
2018-06-11T21:01:04.797Z,8.43
2018-06-11T21:07:05.660Z,7.16
2018-06-11T21:11:06.284Z,6.67
2018-06-11T21:17:06.989Z,6.62
2018-06-11T21:23:07.723Z,6.5
2018-06-11T21:27:08.788Z,5.89
2018-06-11T21:33:09.738Z,6.18
2018-06-11T21:37:10.320Z,5.61
2018-06-11T21:39:11.078Z,6.03
2018-06-11T21:43:12.013Z,5.69
2018-06-11T21:49:12.625Z,5.41
2018-06-11T21:53:13.557Z,5.49
2018-06-11T21:59:14.078Z,5.05
2018-06-11T22:03:15.117Z,4.76
2018-06-11T22:05:16.253Z,5.15
2018-06-11T22:09:16.437Z,4.98
2018-06-11T22:15:18.380Z,4.67
2018-06-11T22:19:18.868Z,4.61
2018-06-11T22:25:19.677Z,5.51
2018-06-11T22:29:20.243Z,5.24
2018-06-11T22:31:21.345Z,5.55
2018-06-11T22:35:22.267Z,5.05
2018-06-11T22:41:23.498Z,4.27
2018-06-11T22:45:25.054Z,3.96
2018-06-11T22:51:25.756Z,5.11
2018-06-11T22:55:26.600Z,4.81
2018-06-11T22:57:27.187Z,5.12
2018-06-11T23:01:28.192Z,5.23
2018-06-11T23:07:28.944Z,3.84
2018-06-11T23:11:29.695Z,4.05
2018-06-11T23:17:30.530Z,4.26
2018-06-11T23:21:31.374Z,4.54
2018-06-11T23:23:32.178Z,4.12
2018-06-11T23:27:33.054Z,3.74
2018-06-11T23:33:33.806Z,4.13
2018-06-11T23:37:34.831Z,4.2
2018-06-11T23:43:35.579Z,3.88
2018-06-11T23:47:36.291Z,3.6
2018-06-11T23:49:37.657Z,4.09
2018-06-11T23:53:39.209Z,3.67
2018-06-11T23:59:39.946Z,3.87
